createdAt,value
2023-02-06T00:01:40.191Z,2.32
2023-02-06T00:04:08.121Z,2.34
2023-02-06T00:06:36.361Z,2.49
2023-02-06T00:09:06.381Z,2.54
2023-02-06T00:11:36.284Z,2.54
2023-02-06T00:14:04.761Z,2.61
2023-02-06T00:16:35.017Z,2.57
2023-02-06T00:19:03.245Z,2.64
2023-02-06T00:21:31.529Z,2.70
2023-02-06T00:24:02.163Z,2.64
2023-02-06T00:26:31.333Z,2.58
2023-02-06T00:29:01.165Z,2.61
2023-02-06T00:31:30.090Z,2.60
2023-02-06T00:33:58.092Z,2.54
2023-02-06T00:36:26.981Z,2.61
2023-02-06T00:38:55.385Z,2.74
2023-02-06T00:41:23.376Z,2.62
2023-02-06T00:43:52.467Z,2.94
2023-02-06T00:46:22.922Z,3.10
2023-02-06T00:48:50.935Z,3.05
2023-02-06T00:51:18.907Z,3.26
2023-02-06T00:53:50.138Z,3.09
2023-02-06T00:56:18.958Z,3.22
2023-02-06T00:58:48.340Z,3.33
2023-02-06T01:01:16.537Z,3.40
2023-02-06T01:03:46.225Z,3.41
2023-02-06T01:06:15.087Z,3.38
2023-02-06T01:08:43.560Z,3.34
2023-02-06T01:11:15.729Z,3.36
2023-02-06T01:13:44.111Z,3.34
2023-02-06T01:16:14.920Z,3.23
2023-02-06T01:18:43.725Z,3.01
2023-02-06T01:21:15.516Z,3.03
2023-02-06T01:23:45.036Z,3.13
2023-02-06T01:26:14.970Z,3.18
2023-02-06T01:28:43.643Z,2.84
2023-02-06T01:31:12.899Z,2.95
2023-02-06T01:33:42.424Z,3.06
2023-02-06T01:36:10.591Z,2.94
2023-02-06T01:38:40.909Z,2.65
2023-02-06T01:41:09.753Z,2.67
2023-02-06T01:43:41.549Z,2.83
2023-02-06T01:46:10.123Z,2.68
2023-02-06T01:48:42.682Z,2.75
2023-02-06T01:51:15.057Z,2.77
2023-02-06T01:53:48.136Z,2.91
2023-02-06T01:56:19.522Z,2.73
2023-02-06T01:58:52.836Z,2.73
2023-02-06T02:01:22.396Z,2.68
2023-02-06T02:03:54.099Z,2.60
2023-02-06T02:06:24.758Z,2.70
2023-02-06T02:08:58.489Z,2.91
2023-02-06T02:11:31.749Z,2.94
2023-02-06T02:14:01.819Z,3.05
2023-02-06T02:16:41.555Z,2.87
2023-02-06T02:19:41.256Z,2.89
2023-02-06T02:22:42.424Z,2.91
2023-02-06T02:25:43.832Z,2.60
2023-02-06T02:28:31.790Z,2.53
2023-02-06T02:31:32.584Z,2.68
2023-02-06T02:34:38.085Z,2.44
2023-02-06T02:37:16.571Z,2.56
2023-02-06T02:39:51.027Z,2.58
2023-02-06T02:42:26.062Z,2.44
2023-02-06T02:44:58.206Z,2.37
2023-02-06T02:47:33.573Z,2.43
2023-02-06T02:50:04.288Z,2.60
2023-02-06T02:52:33.297Z,2.50
2023-02-06T02:55:01.742Z,2.54
2023-02-06T02:57:32.659Z,2.44
2023-02-06T03:00:02.289Z,2.60
2023-02-06T03:02:35.968Z,2.44
2023-02-06T03:05:10.753Z,2.33
2023-02-06T03:07:50.509Z,2.21
2023-02-06T03:10:29.407Z,2.37
2023-02-06T03:13:05.562Z,2.51
2023-02-06T03:15:41.372Z,2.41
2023-02-06T03:18:13.594Z,2.46
2023-02-06T03:20:46.574Z,2.43
2023-02-06T03:23:19.423Z,2.26
2023-02-06T03:25:52.464Z,2.16
2023-02-06T03:28:25.646Z,2.37
2023-02-06T03:30:57.244Z,2.19
2023-02-06T03:33:30.498Z,1.95
2023-02-06T03:35:59.890Z,1.78
2023-02-06T03:38:29.470Z,1.67
2023-02-06T03:40:59.058Z,1.63
2023-02-06T03:43:31.056Z,1.67
2023-02-06T03:46:04.069Z,1.53
2023-02-06T03:48:37.622Z,1.63
2023-02-06T03:51:13.393Z,1.68
2023-02-06T03:53:45.035Z,1.67
2023-02-06T03:56:20.443Z,1.60
2023-02-06T03:58:49.313Z,1.60
2023-02-06T04:01:18.061Z,1.59
2023-02-06T04:03:48.847Z,1.63
2023-02-06T04:06:19.921Z,1.60
2023-02-06T04:08:48.009Z,1.61
2023-02-06T04:11:17.096Z,1.66
2023-02-06T04:13:45.103Z,1.40
2023-02-06T04:16:13.523Z,1.29
2023-02-06T04:18:41.932Z,1.31
2023-02-06T04:21:10.053Z,1.19
2023-02-06T04:23:39.781Z,0.98
2023-02-06T04:26:07.650Z,1.00
2023-02-06T04:28:35.543Z,0.97
2023-02-06T04:31:04.708Z,0.90
2023-02-06T04:33:32.608Z,0.84
2023-02-06T04:36:00.997Z,0.92
2023-02-06T04:38:30.154Z,0.84
2023-02-06T04:41:05.332Z,0.87
2023-02-06T04:43:33.802Z,0.80
2023-02-06T04:46:02.253Z,0.77
2023-02-06T04:48:30.273Z,0.87
2023-02-06T04:50:58.199Z,0.73
2023-02-06T04:53:27.051Z,0.70
2023-02-06T04:55:56.391Z,0.69
2023-02-06T04:58:26.606Z,0.72
2023-02-06T05:00:54.572Z,0.80
2023-02-06T05:03:23.733Z,0.92
2023-02-06T05:05:52.110Z,0.98
2023-02-06T05:08:20.533Z,0.92
2023-02-06T05:10:48.486Z,0.92
2023-02-06T05:13:17.346Z,0.81
2023-02-06T05:15:46.934Z,0.69
2023-02-06T05:18:18.263Z,0.55
2023-02-06T05:20:46.256Z,0.53
2023-02-06T05:23:14.692Z,0.56
2023-02-06T05:25:44.710Z,0.57
2023-02-06T05:28:13.144Z,0.59
2023-02-06T05:30:41.429Z,0.56
2023-02-06T05:33:11.822Z,0.62
2023-02-06T05:35:39.843Z,0.63
2023-02-06T05:38:08.629Z,0.46
2023-02-06T05:40:37.317Z,0.49
2023-02-06T05:43:05.348Z,0.63
2023-02-06T05:45:35.952Z,0.60
2023-02-06T05:48:04.663Z,0.57
2023-02-06T05:50:34.432Z,0.52
2023-02-06T05:53:02.363Z,0.56
2023-02-06T05:55:30.269Z,0.76
2023-02-06T05:57:59.588Z,0.81
2023-02-06T06:00:27.758Z,0.87
2023-02-06T06:02:56.248Z,0.94
2023-02-06T06:05:24.775Z,0.88
2023-02-06T06:07:54.145Z,0.80
2023-02-06T06:10:22.563Z,0.70
2023-02-06T06:12:50.675Z,0.80
2023-02-06T06:15:18.892Z,0.70
2023-02-06T06:17:46.816Z,0.38
2023-02-06T06:20:15.724Z,0.26
2023-02-06T06:22:43.585Z,0.29
2023-02-06T06:25:13.321Z,0.30
2023-02-06T06:27:41.673Z,0.32
2023-02-06T06:30:11.332Z,0.45
2023-02-06T06:32:39.746Z,0.42
2023-02-06T06:35:08.330Z,0.55
2023-02-06T06:37:36.296Z,0.60
2023-02-06T06:40:04.432Z,0.52
2023-02-06T06:42:34.646Z,0.83
2023-02-06T06:45:02.647Z,1.01
2023-02-06T06:47:31.057Z,1.05
2023-02-06T06:49:59.883Z,1.08
2023-02-06T06:52:27.906Z,1.12
2023-02-06T06:54:56.394Z,1.11
2023-02-06T06:57:25.055Z,1.12
2023-02-06T06:59:54.467Z,0.98
2023-02-06T07:02:22.812Z,0.87
2023-02-06T07:04:51.329Z,1.09
2023-02-06T07:07:19.238Z,1.04
2023-02-06T07:09:47.676Z,1.08
2023-02-06T07:12:15.766Z,1.18
2023-02-06T07:14:43.750Z,1.21
2023-02-06T07:17:13.051Z,1.22
2023-02-06T07:19:43.066Z,1.12
2023-02-06T07:22:11.062Z,1.16
2023-02-06T07:24:38.957Z,1.26
2023-02-06T07:27:07.928Z,1.47
2023-02-06T07:29:35.968Z,1.39
2023-02-06T07:32:05.513Z,1.31
2023-02-06T07:34:35.212Z,1.08
2023-02-06T07:37:04.285Z,0.98
2023-02-06T07:39:32.640Z,1.09
2023-02-06T07:42:00.574Z,1.25
2023-02-06T07:44:34.896Z,1.44
2023-02-06T07:47:02.842Z,1.61
2023-02-06T07:49:30.731Z,1.59
2023-02-06T07:52:00.471Z,1.67
2023-02-06T07:54:28.574Z,1.56
2023-02-06T07:56:57.021Z,1.59
2023-02-06T07:59:24.948Z,1.68
2023-02-06T08:01:53.401Z,1.38
2023-02-06T08:04:21.221Z,1.33
2023-02-06T08:06:49.218Z,1.60
2023-02-06T08:09:18.587Z,1.54
2023-02-06T08:11:50.575Z,1.66
2023-02-06T08:14:18.523Z,1.89
2023-02-06T08:16:46.431Z,1.84
2023-02-06T08:19:15.401Z,1.68
2023-02-06T08:21:43.395Z,2.04
2023-02-06T08:24:13.266Z,2.12
2023-02-06T08:26:44.254Z,2.22
2023-02-06T08:29:15.068Z,2.15
2023-02-06T08:31:45.967Z,2.30
2023-02-06T08:34:15.835Z,2.71
2023-02-06T08:36:44.632Z,2.47
2023-02-06T08:39:14.769Z,2.36
2023-02-06T08:41:45.093Z,2.53
2023-02-06T08:44:16.544Z,2.84
2023-02-06T08:46:46.101Z,2.98
2023-02-06T08:49:15.131Z,3.01
2023-02-06T08:51:44.106Z,2.78
2023-02-06T08:54:13.895Z,2.91
2023-02-06T08:56:42.322Z,2.91
2023-02-06T08:59:13.875Z,2.68
2023-02-06T09:01:42.806Z,2.98
2023-02-06T09:04:12.155Z,2.74
2023-02-06T09:06:43.057Z,3.09
2023-02-06T09:09:13.976Z,2.81
2023-02-06T09:11:42.597Z,2.77
2023-02-06T09:14:16.924Z,2.80
2023-02-06T09:16:45.130Z,2.74
2023-02-06T09:19:13.563Z,2.77
2023-02-06T09:21:44.049Z,3.05
2023-02-06T09:24:11.814Z,3.40
2023-02-06T09:26:58.447Z,3.40
2023-02-06T09:29:32.318Z,3.57
2023-02-06T09:32:00.678Z,3.46
2023-02-06T09:34:28.927Z,3.61
2023-02-06T09:36:58.188Z,3.38
2023-02-06T09:39:26.363Z,3.51
2023-02-06T09:41:59.098Z,3.41
2023-02-06T09:44:32.786Z,3.44
2023-02-06T09:47:08.875Z,3.74
2023-02-06T09:49:40.556Z,3.78
2023-02-06T09:52:35.585Z,3.67
2023-02-06T09:55:12.757Z,3.79
2023-02-06T09:57:47.821Z,4.09
2023-02-06T10:00:32.446Z,4.03
2023-02-06T10:03:27.229Z,3.79
2023-02-06T10:06:05.921Z,3.75
2023-02-06T10:08:40.227Z,3.74
2023-02-06T10:11:13.973Z,3.44
2023-02-06T10:13:50.161Z,3.50
2023-02-06T10:16:33.544Z,3.60
2023-02-06T10:19:06.349Z,3.68
2023-02-06T10:21:38.873Z,3.71
2023-02-06T10:24:12.058Z,3.90
2023-02-06T10:26:41.277Z,3.70
2023-02-06T10:29:21.238Z,3.95
2023-02-06T10:31:59.851Z,4.13
2023-02-06T10:34:40.415Z,3.83
2023-02-06T10:37:19.505Z,4.20
2023-02-06T10:40:04.318Z,4.21
2023-02-06T10:42:44.528Z,3.90
2023-02-06T10:45:20.423Z,3.96
2023-02-06T10:47:55.376Z,3.99
2023-02-06T10:50:29.872Z,4.00
2023-02-06T10:53:02.127Z,4.30
2023-02-06T10:55:36.593Z,4.17
2023-02-06T10:58:14.319Z,3.99
2023-02-06T11:00:47.143Z,4.11
2023-02-06T11:03:20.977Z,4.20
2023-02-06T11:05:50.526Z,4.10
2023-02-06T11:08:23.169Z,4.11
2023-02-06T11:10:53.795Z,4.16
2023-02-06T11:13:27.928Z,4.52
2023-02-06T11:16:02.960Z,4.26
2023-02-06T11:18:36.038Z,4.48
2023-02-06T11:21:07.283Z,4.34
2023-02-06T11:23:35.667Z,4.43
2023-02-06T11:26:26.873Z,4.64
2023-02-06T11:28:56.746Z,4.54
2023-02-06T11:31:43.923Z,4.62
2023-02-06T11:34:24.625Z,4.41
2023-02-06T11:36:55.876Z,4.58
2023-02-06T11:39:31.142Z,4.36
2023-02-06T11:42:03.005Z,4.48
2023-02-06T11:44:39.974Z,4.43
2023-02-06T11:47:23.189Z,4.55
2023-02-06T11:49:52.995Z,4.65
2023-02-06T11:52:32.755Z,4.67
2023-02-06T11:55:02.899Z,4.87
2023-02-06T11:57:34.495Z,4.86
2023-02-06T12:00:19.578Z,4.95
2023-02-06T12:02:52.784Z,4.96
2023-02-06T12:05:25.285Z,4.85
2023-02-06T12:08:00.545Z,4.75
2023-02-06T12:10:31.773Z,4.83
2023-02-06T12:13:08.209Z,5.06
2023-02-06T12:15:47.106Z,4.93
2023-02-06T12:18:20.237Z,4.64
2023-02-06T12:20:53.512Z,4.55
2023-02-06T12:23:27.469Z,4.64
2023-02-06T12:25:57.991Z,4.65
2023-02-06T12:28:32.127Z,4.65
2023-02-06T12:31:04.808Z,4.86
2023-02-06T12:33:41.530Z,4.67
2023-02-06T12:36:16.718Z,4.67
2023-02-06T12:38:50.628Z,5.04
2023-02-06T12:41:42.476Z,5.14
2023-02-06T12:44:24.077Z,5.10
2023-02-06T12:46:58.723Z,5.12
2023-02-06T12:49:31.189Z,5.10
2023-02-06T12:52:06.153Z,5.06
2023-02-06T12:55:04.497Z,5.27
2023-02-06T12:57:35.214Z,5.32
2023-02-06T13:00:22.524Z,5.13
2023-02-06T13:03:07.334Z,4.72
2023-02-06T13:05:38.407Z,4.75
2023-02-06T13:08:11.850Z,4.86
2023-02-06T13:10:40.887Z,4.55
2023-02-06T13:13:27.366Z,4.54
2023-02-06T13:15:57.622Z,4.54
2023-02-06T13:18:53.797Z,4.72
2023-02-06T13:21:28.577Z,4.73
2023-02-06T13:24:19.136Z,4.89
2023-02-06T13:27:12.953Z,4.90
2023-02-06T13:29:43.945Z,4.82
2023-02-06T13:32:45.381Z,4.97
2023-02-06T13:35:28.858Z,4.76
2023-02-06T13:38:28.412Z,4.71
2023-02-06T13:41:15.787Z,4.80
2023-02-06T13:43:48.943Z,4.99
2023-02-06T13:46:21.549Z,4.96
2023-02-06T13:49:10.837Z,5.26
2023-02-06T13:51:51.956Z,5.09
2023-02-06T13:54:45.256Z,5.01
2023-02-06T13:57:29.974Z,5.24
2023-02-06T14:00:03.517Z,5.24
2023-02-06T14:02:38.444Z,5.07
2023-02-06T14:05:14.393Z,5.03
2023-02-06T14:07:55.346Z,5.04
2023-02-06T14:10:56.205Z,5.07
2023-02-06T14:13:37.643Z,5.06
2023-02-06T14:16:19.818Z,4.93
2023-02-06T14:18:54.797Z,4.92
2023-02-06T14:21:35.378Z,4.97
2023-02-06T14:24:19.112Z,4.71
2023-02-06T14:26:58.719Z,4.71
2023-02-06T14:29:37.231Z,4.68
2023-02-06T14:32:23.017Z,4.80
2023-02-06T14:35:04.094Z,4.78
2023-02-06T14:37:58.308Z,4.57
2023-02-06T14:40:28.291Z,4.83
2023-02-06T14:42:59.832Z,4.86
2023-02-06T14:45:38.489Z,4.75
2023-02-06T14:48:21.725Z,5.13
2023-02-06T14:50:54.896Z,5.17
2023-02-06T14:53:28.808Z,5.35
2023-02-06T14:56:08.775Z,5.06
2023-02-06T14:58:38.698Z,4.93
2023-02-06T15:01:21.161Z,4.80
2023-02-06T15:03:53.004Z,4.75
2023-02-06T15:06:33.743Z,4.89
2023-02-06T15:09:02.619Z,4.62
2023-02-06T15:11:32.696Z,4.33
2023-02-06T15:14:03.092Z,4.18
2023-02-06T15:16:33.033Z,4.18
2023-02-06T15:19:14.079Z,4.44
2023-02-06T15:21:44.154Z,4.60
2023-02-06T15:24:31.845Z,4.62
2023-02-06T15:27:06.634Z,4.55
2023-02-06T15:29:39.647Z,4.40
2023-02-06T15:32:17.867Z,4.32
2023-02-06T15:34:48.492Z,4.13
2023-02-06T15:37:24.777Z,4.03
2023-02-06T15:39:54.824Z,3.88
2023-02-06T15:42:23.887Z,3.74
2023-02-06T15:44:53.052Z,3.65
2023-02-06T15:47:22.867Z,3.63
2023-02-06T15:49:53.231Z,3.51
2023-02-06T15:52:37.583Z,3.54
2023-02-06T15:55:06.089Z,3.47
2023-02-06T15:57:36.498Z,3.48
2023-02-06T16:00:10.156Z,3.33
2023-02-06T16:02:41.772Z,3.29
2023-02-06T16:05:24.465Z,3.36
2023-02-06T16:07:52.694Z,3.38
2023-02-06T16:10:28.205Z,3.41
2023-02-06T16:12:57.574Z,3.47
2023-02-06T16:15:30.694Z,3.31
2023-02-06T16:18:00.761Z,3.16
2023-02-06T16:20:40.184Z,3.16
2023-02-06T16:23:24.595Z,3.18
2023-02-06T16:26:03.629Z,3.12
2023-02-06T16:28:32.031Z,2.99
2023-02-06T16:31:04.967Z,2.99
2023-02-06T16:33:37.477Z,2.91
2023-02-06T16:36:08.628Z,2.74
2023-02-06T16:38:36.618Z,2.77
2023-02-06T16:41:04.875Z,2.84
2023-02-06T16:43:33.738Z,2.91
2023-02-06T16:46:02.252Z,2.92
2023-02-06T16:48:30.919Z,2.81
2023-02-06T16:51:00.824Z,2.74
2023-02-06T16:53:29.987Z,2.80
2023-02-06T16:55:58.780Z,2.78
2023-02-06T16:58:28.911Z,2.77
2023-02-06T17:00:57.411Z,2.71
2023-02-06T17:03:25.420Z,2.61
2023-02-06T17:05:54.686Z,2.53
2023-02-06T17:08:25.356Z,2.49
2023-02-06T17:10:55.567Z,2.53
2023-02-06T17:13:25.086Z,2.56
2023-02-06T17:15:53.522Z,2.28
2023-02-06T17:18:23.559Z,2.23
2023-02-06T17:20:52.901Z,2.19
2023-02-06T17:23:21.382Z,2.13
2023-02-06T17:25:51.298Z,2.02
2023-02-06T17:28:21.620Z,2.06
2023-02-06T17:30:51.375Z,1.99
2023-02-06T17:33:19.395Z,2.06
2023-02-06T17:35:48.968Z,2.02
2023-02-06T17:38:17.965Z,2.05
2023-02-06T17:40:46.089Z,2.05
2023-02-06T17:43:14.040Z,2.08
2023-02-06T17:45:44.364Z,2.02
2023-02-06T17:48:12.318Z,1.85
2023-02-06T17:50:41.864Z,1.77
2023-02-06T17:53:15.771Z,1.77
2023-02-06T17:55:45.107Z,1.66
2023-02-06T17:58:14.086Z,1.64
2023-02-06T18:00:43.455Z,1.60
2023-02-06T18:03:11.361Z,1.52
2023-02-06T18:05:40.183Z,1.49
2023-02-06T18:08:08.087Z,1.42
2023-02-06T18:10:36.949Z,1.42
2023-02-06T18:13:05.409Z,1.42
2023-02-06T18:15:33.393Z,1.25
2023-02-06T18:18:05.191Z,1.24
2023-02-06T18:20:33.408Z,1.12
2023-02-06T18:23:01.289Z,1.05
2023-02-06T18:25:30.159Z,1.04
2023-02-06T18:27:58.064Z,0.88
2023-02-06T18:30:26.435Z,0.84
2023-02-06T18:32:54.841Z,0.81
2023-02-06T18:35:24.511Z,0.80
2023-02-06T18:37:52.695Z,0.83
2023-02-06T18:40:21.642Z,0.83
2023-02-06T18:42:51.279Z,0.88
2023-02-06T18:45:19.995Z,0.85
2023-02-06T18:47:48.941Z,0.80
2023-02-06T18:50:18.702Z,0.84
2023-02-06T18:52:48.584Z,0.77
2023-02-06T18:55:16.374Z,0.81
2023-02-06T18:57:44.345Z,0.77
2023-02-06T19:00:16.009Z,0.76
2023-02-06T19:02:44.065Z,0.79
2023-02-06T19:05:12.222Z,0.70
2023-02-06T19:07:40.626Z,0.56
2023-02-06T19:10:12.989Z,0.63
2023-02-06T19:12:41.926Z,0.56
2023-02-06T19:15:11.148Z,0.46
2023-02-06T19:17:40.105Z,0.45
2023-02-06T19:20:10.059Z,0.45
2023-02-06T19:22:39.559Z,0.33
2023-02-06T19:25:14.478Z,0.44
2023-02-06T19:27:44.081Z,0.32
2023-02-06T19:30:14.106Z,0.26
2023-02-06T19:32:43.826Z,0.19
2023-02-06T19:35:12.037Z,0.29
2023-02-06T19:37:40.464Z,0.26
2023-02-06T19:40:09.217Z,0.19
2023-02-06T19:42:40.126Z,0.22
2023-02-06T19:45:08.536Z,0.28
2023-02-06T19:47:36.948Z,0.28
2023-02-06T19:50:05.780Z,0.15
2023-02-06T19:52:35.194Z,-0.03
2023-02-06T19:55:04.092Z,0.18
2023-02-06T19:57:32.021Z,0.30
2023-02-06T20:00:01.769Z,0.41
2023-02-06T20:02:33.631Z,0.46
2023-02-06T20:05:02.810Z,0.32
2023-02-06T20:07:31.866Z,0.14
2023-02-06T20:10:00.548Z,-0.03
2023-02-06T20:12:29.122Z,-0.06
2023-02-06T20:14:57.212Z,-0.07
2023-02-06T20:17:27.924Z,-0.03
2023-02-06T20:19:59.165Z,-0.06
2023-02-06T20:22:28.167Z,0.00
2023-02-06T20:24:56.092Z,0.04
2023-02-06T20:27:24.610Z,-0.07
2023-02-06T20:29:52.973Z,-0.06
2023-02-06T20:32:20.938Z,0.00
2023-02-06T20:34:50.340Z,-0.25
2023-02-06T20:37:19.322Z,-0.41
2023-02-06T20:39:47.293Z,-0.34
2023-02-06T20:42:16.136Z,-0.24
2023-02-06T20:44:44.467Z,-0.58
2023-02-06T20:47:14.270Z,-0.57
2023-02-06T20:49:42.858Z,-0.50
2023-02-06T20:52:13.355Z,-0.31
2023-02-06T20:54:41.616Z,-0.16
2023-02-06T20:57:10.050Z,-0.20
2023-02-06T20:59:38.418Z,-0.11
2023-02-06T21:02:06.435Z,-0.25
2023-02-06T21:04:34.614Z,-0.24
2023-02-06T21:07:03.755Z,-0.28
2023-02-06T21:09:33.118Z,-0.20
2023-02-06T21:12:01.322Z,-0.31
2023-02-06T21:14:30.727Z,-0.54
2023-02-06T21:16:59.003Z,-0.58
2023-02-06T21:19:29.162Z,-0.65
2023-02-06T21:21:58.526Z,-0.62
2023-02-06T21:24:26.619Z,-0.50
2023-02-06T21:26:56.539Z,-0.41
2023-02-06T21:29:24.967Z,-0.54
2023-02-06T21:32:07.267Z,-0.51
2023-02-06T21:34:41.002Z,-0.41
2023-02-06T21:37:09.332Z,-0.72
2023-02-06T21:39:39.298Z,-1.03
2023-02-06T21:42:09.188Z,-1.04
2023-02-06T21:44:37.972Z,-1.03
2023-02-06T21:47:06.564Z,-0.99
2023-02-06T21:49:34.809Z,-0.89
2023-02-06T21:52:02.735Z,-0.85
2023-02-06T21:54:32.262Z,-0.89
2023-02-06T21:57:00.240Z,-0.97
2023-02-06T21:59:33.158Z,-0.87
2023-02-06T22:02:01.245Z,-0.97
2023-02-06T22:04:29.289Z,-0.86
2023-02-06T22:06:58.278Z,-0.82
2023-02-06T22:09:26.247Z,-0.69
2023-02-06T22:11:54.274Z,-1.05
2023-02-06T22:14:22.911Z,-1.11
2023-02-06T22:16:52.422Z,-1.22
2023-02-06T22:19:20.485Z,-1.34
2023-02-06T22:21:51.151Z,-1.20
2023-02-06T22:24:19.209Z,-1.03
2023-02-06T22:26:49.229Z,-0.93
2023-02-06T22:29:19.255Z,-0.99
2023-02-06T22:31:48.481Z,-0.93
2023-02-06T22:34:19.127Z,-0.87
2023-02-06T22:36:47.885Z,-0.97
2023-02-06T22:39:16.577Z,-1.21
2023-02-06T22:41:46.278Z,-1.11
2023-02-06T22:44:17.698Z,-0.97
2023-02-06T22:46:48.358Z,-1.04
2023-02-06T22:49:19.337Z,-1.05
2023-02-06T22:51:47.757Z,-1.22
2023-02-06T22:54:16.302Z,-1.24
2023-02-06T22:56:46.394Z,-1.13
2023-02-06T22:59:17.276Z,-0.97
2023-02-06T23:01:48.275Z,-1.03
2023-02-06T23:04:20.198Z,-1.13
2023-02-06T23:06:49.140Z,-1.22
2023-02-06T23:09:20.543Z,-1.15
2023-02-06T23:11:48.980Z,-0.92
2023-02-06T23:14:18.658Z,-0.90
2023-02-06T23:16:48.241Z,-0.97
2023-02-06T23:19:16.897Z,-1.01
2023-02-06T23:21:48.088Z,-1.01
2023-02-06T23:24:17.289Z,-1.18
2023-02-06T23:26:47.340Z,-1.22
2023-02-06T23:29:19.296Z,-1.18
2023-02-06T23:31:48.460Z,-1.47
2023-02-06T23:34:18.800Z,-1.42
2023-02-06T23:36:48.714Z,-1.31
2023-02-06T23:39:17.304Z,-1.18
2023-02-06T23:41:45.432Z,-1.13
2023-02-06T23:44:13.813Z,-1.13
2023-02-06T23:46:42.346Z,-1.24
2023-02-06T23:49:11.688Z,-1.20
2023-02-06T23:51:39.656Z,-1.24
2023-02-06T23:54:10.134Z,-1.34
2023-02-06T23:56:39.126Z,-1.31
2023-02-06T23:59:07.590Z,-1.38
